Time;durP1;ratioP1;P1;durP2;ratioP2;P2;SDS_P1;SDS_P2;PMS_P1;PMS_P2;Temp;Humidity;BMP_temperature;BMP_pressure;BME280_temperature;BME280_humidity;BME280_pressure;Samples;Min_cycle;Max_cycle;Signal;HPM_P1;HPM_P2
2023/06/17 00:01:07;;;;;;;8.13;6.10;;;15.40;99.90;;;;;;5107050;28;20051;-79
2023/06/17 00:03:33;;;;;;;7.50;4.47;;;15.40;99.90;;;;;;5095218;28;20201;-79
2023/06/17 00:05:59;;;;;;;6.47;4.38;;;15.40;99.90;;;;;;5137123;27;20039;-79
2023/06/17 00:08:24;;;;;;;6.10;4.88;;;15.40;99.90;;;;;;5092592;27;20050;-79
2023/06/17 00:10:50;;;;;;;6.10;4.18;;;15.50;99.90;;;;;;5095962;28;20043;-78
2023/06/17 00:13:19;;;;;;;8.13;4.18;;;15.50;99.90;;;;;;5095790;28;20468;-79
2023/06/17 00:15:56;;;;;;;4.03;3.33;;;15.50;99.90;;;;;;5094799;28;20494;-79
2023/06/17 00:18:24;;;;;;;6.50;4.22;;;15.50;99.90;;;;;;5103404;27;20050;-79
2023/06/17 00:20:52;;;;;;;6.95;5.15;;;15.50;99.90;;;;;;5116645;27;20050;-79
2023/06/17 00:23:21;;;;;;;5.25;3.70;;;15.50;99.90;;;;;;5099011;27;20043;-79
2023/06/17 00:25:48;;;;;;;4.93;3.45;;;15.40;99.90;;;;;;5099729;27;20051;-79
2023/06/17 00:28:14;;;;;;;4.47;3.10;;;15.50;99.90;;;;;;5116118;27;20043;-79
2023/06/17 00:30:40;;;;;;;5.70;4.85;;;15.50;99.90;;;;;;5116036;27;20059;-79
2023/06/17 00:33:05;;;;;;;4.80;4.22;;;15.50;99.90;;;;;;5129079;27;20095;-78
2023/06/17 00:35:33;;;;;;;6.57;5.35;;;15.50;99.90;;;;;;5105176;28;20128;-79
2023/06/17 00:37:59;;;;;;;4.22;3.40;;;15.50;99.90;;;;;;5089898;27;20519;-79
2023/06/17 00:40:25;;;;;;;4.68;3.60;;;15.50;99.90;;;;;;5097392;27;20043;-79
2023/06/17 00:42:51;;;;;;;;;;;15.50;99.90;;;;;;5115649;27;20043;-79
2023/06/17 00:45:17;;;;;;;7.97;4.78;;;15.50;99.90;;;;;;5114580;27;19915;-79
2023/06/17 00:47:43;;;;;;;6.30;5.07;;;15.50;99.90;;;;;;5104272;27;20066;-79
2023/06/17 00:50:14;;;;;;;5.85;4.60;;;15.40;99.90;;;;;;5142482;27;20093;-80
2023/06/17 00:52:42;;;;;;;6.07;4.95;;;15.40;99.90;;;;;;5149582;27;20053;-79
2023/06/17 00:55:09;;;;;;;7.30;5.32;;;15.40;99.90;;;;;;5097807;27;20035;-79
2023/06/17 00:57:35;;;;;;;6.68;5.03;;;15.40;99.90;;;;;;5107831;27;20174;-79
2023/06/17 01:00:03;;;;;;;6.82;5.25;;;15.40;99.90;;;;;;5107940;27;20050;-79
2023/06/17 01:02:29;;;;;;;5.07;3.88;;;15.40;99.90;;;;;;5095617;27;20398;-79
2023/06/17 01:04:57;;;;;;;5.40;4.25;;;15.40;99.90;;;;;;5106902;27;20047;-79
2023/06/17 01:07:45;;;;;;;7.10;5.00;;;15.40;99.90;;;;;;5100936;27;20038;-80
2023/06/17 01:10:26;;;;;;;8.20;5.78;;;15.50;99.90;;;;;;5114476;27;20114;-79
2023/06/17 01:12:54;;;;;;;7.63;6.03;;;15.40;99.90;;;;;;5110519;27;20035;-79
2023/06/17 01:15:21;;;;;;;7.72;5.70;;;15.40;99.90;;;;;;5103895;28;20051;-79
2023/06/17 01:17:52;;;;;;;5.30;4.72;;;15.40;99.90;;;;;;5112009;27;20092;-79
2023/06/17 01:20:18;;;;;;;6.88;5.20;;;15.40;99.90;;;;;;5095168;27;20565;-79
2023/06/17 01:22:44;;;;;;;;;;;15.40;99.90;;;;;;5114362;27;20039;-78
2023/06/17 01:25:13;;;;;;;6.25;4.72;;;15.40;99.90;;;;;;5096116;27;20282;-79
2023/06/17 01:27:39;;;;;;;5.25;4.57;;;15.40;99.90;;;;;;5091523;28;20043;-80
2023/06/17 01:30:05;;;;;;;7.00;5.50;;;15.40;99.90;;;;;;5088882;27;20055;-81
2023/06/17 01:32:31;;;;;;;9.05;6.53;;;15.40;99.90;;;;;;5113650;27;20709;-81
2023/06/17 01:35:06;;;;;;;6.57;4.60;;;15.50;99.90;;;;;;5114180;27;20091;-80
2023/06/17 01:37:45;;;;;;;5.65;4.57;;;15.50;99.90;;;;;;5098136;27;20405;-80
2023/06/17 01:40:13;;;;;;;5.13;4.30;;;15.50;99.90;;;;;;5114716;27;20039;-80
2023/06/17 01:42:44;;;;;;;8.10;5.65;;;15.40;99.90;;;;;;5097583;28;20134;-80
2023/06/17 01:45:13;;;;;;;5.75;4.57;;;15.50;99.90;;;;;;5095994;27;20030;-80
2023/06/17 01:47:39;;;;;;;6.63;5.18;;;15.50;99.90;;;;;;5098617;27;20070;-80
2023/06/17 01:50:06;;;;;;;7.15;5.07;;;15.50;99.90;;;;;;5101777;28;20775;-80
2023/06/17 01:52:32;;;;;;;7.03;5.28;;;15.50;99.90;;;;;;5091323;28;20044;-80
2023/06/17 01:54:58;;;;;;;9.70;7.30;;;15.50;99.90;;;;;;5061898;28;20127;-80
2023/06/17 01:57:25;;;;;;;7.68;6.20;;;15.50;99.90;;;;;;5070721;28;20491;-81
2023/06/17 01:59:53;;;;;;;8.38;5.72;;;15.40;99.90;;;;;;5079418;28;20047;-80
2023/06/17 02:02:19;;;;;;;7.45;5.30;;;15.40;99.90;;;;;;5054178;28;20115;-80
2023/06/17 02:04:47;;;;;;;9.05;6.25;;;15.40;99.90;;;;;;5053896;28;20598;-80
2023/06/17 02:07:13;;;;;;;8.85;6.45;;;15.40;99.90;;;;;;5098323;28;20044;-80
2023/06/17 02:09:40;;;;;;;6.25;5.05;;;15.30;99.90;;;;;;5060534;28;20036;-80
2023/06/17 02:12:05;;;;;;;;;;;15.30;99.90;;;;;;5074471;28;20075;-80
2023/06/17 02:14:33;;;;;;;12.55;7.28;;;15.40;99.90;;;;;;5070928;28;19959;-80
2023/06/17 02:16:58;;;;;;;6.82;5.20;;;15.40;99.90;;;;;;5080973;28;20044;-79
2023/06/17 02:19:24;;;;;;;6.07;4.80;;;15.40;99.90;;;;;;5072955;28;20048;-78
2023/06/17 02:21:50;;;;;;;9.77;6.90;;;15.40;99.90;;;;;;5069709;28;20090;-79
2023/06/17 02:24:15;;;;;;;7.93;5.45;;;15.40;99.90;;;;;;5068461;28;20040;-78
2023/06/17 02:26:41;;;;;;;6.45;4.80;;;15.30;99.90;;;;;;5057581;28;20085;-78
2023/06/17 02:29:07;;;;;;;7.63;5.32;;;15.30;99.90;;;;;;5086607;28;20040;-78
2023/06/17 02:31:33;;;;;;;7.43;5.18;;;15.30;99.90;;;;;;5081143;28;20476;-78
2023/06/17 02:34:01;;;;;;;7.93;6.35;;;15.30;99.90;;;;;;5071014;28;20036;-80
2023/06/17 02:36:26;;;;;;;7.80;5.53;;;15.30;99.90;;;;;;5061715;28;20124;-80
2023/06/17 02:38:53;;;;;;;7.57;6.07;;;15.30;99.90;;;;;;5055712;28;21091;-80
2023/06/17 02:41:19;;;;;;;9.00;6.25;;;15.20;99.90;;;;;;5082862;28;20051;-80
2023/06/17 02:43:45;;;;;;;9.48;7.18;;;15.20;99.90;;;;;;5069995;28;20040;-80
2023/06/17 02:46:11;;;;;;;8.30;5.43;;;15.20;99.90;;;;;;5052546;28;20051;-80
2023/06/17 02:48:36;;;;;;;6.88;5.22;;;15.20;99.90;;;;;;5069748;28;20144;-80
2023/06/17 02:51:04;;;;;;;5.63;5.10;;;15.20;99.90;;;;;;5073714;28;20063;-80
2023/06/17 02:53:29;;;;;;;6.45;4.82;;;15.20;99.90;;;;;;5078026;28;20043;-80
2023/06/17 02:55:55;;;;;;;5.53;4.38;;;15.20;99.90;;;;;;5074882;28;20037;-79
2023/06/17 02:58:21;;;;;;;6.03;4.72;;;15.20;99.90;;;;;;5073116;28;20040;-79
2023/06/17 03:00:47;;;;;;;10.40;5.90;;;15.20;99.90;;;;;;5059010;28;20399;-79
2023/06/17 03:03:13;;;;;;;7.38;5.93;;;15.20;99.90;;;;;;5071328;28;20052;-80
2023/06/17 03:05:41;;;;;;;6.15;4.90;;;15.10;99.90;;;;;;5083741;28;20048;-79
2023/06/17 03:08:07;;;;;;;5.50;4.47;;;15.10;99.90;;;;;;5085890;28;20059;-79
2023/06/17 03:10:33;;;;;;;6.45;5.43;;;15.10;99.90;;;;;;5074617;28;20391;-79
2023/06/17 03:13:00;;;;;;;7.13;5.22;;;15.10;99.90;;;;;;5089348;28;20036;-79
2023/06/17 03:15:26;;;;;;;6.53;4.82;;;15.00;99.90;;;;;;5072785;28;20120;-79
2023/06/17 03:17:52;;;;;;;7.00;5.25;;;15.00;99.90;;;;;;5059210;28;20115;-79
2023/06/17 03:20:18;;;;;;;8.30;6.53;;;15.00;99.90;;;;;;5089432;28;20036;-79
2023/06/17 03:22:44;;;;;;;6.55;4.72;;;14.90;99.90;;;;;;5083769;28;20044;-79
2023/06/17 03:25:11;;;;;;;5.55;4.55;;;15.00;99.90;;;;;;5069765;28;20039;-79
2023/06/17 03:27:36;;;;;;;9.07;7.22;;;15.00;99.90;;;;;;5085436;28;20410;-79
2023/06/17 03:30:03;;;;;;;9.68;7.00;;;15.00;99.90;;;;;;5057768;28;20048;-79
2023/06/17 03:32:28;;;;;;;;;;;14.90;99.90;;;;;;5079588;28;20119;-79
2023/06/17 03:34:54;;;;;;;7.50;5.55;;;15.00;99.90;;;;;;5081667;28;20011;-79
2023/06/17 03:37:23;;;;;;;6.65;5.50;;;14.90;99.90;;;;;;5074875;28;20043;-79
2023/06/17 03:39:48;;;;;;;7.65;6.78;;;14.90;99.90;;;;;;5072612;28;20044;-80
2023/06/17 03:42:17;;;;;;;9.70;7.65;;;14.90;99.90;;;;;;5069247;28;20093;-79
2023/06/17 03:44:43;;;;;;;9.05;6.80;;;14.90;99.90;;;;;;5075980;28;20052;-79
2023/06/17 03:47:08;;;;;;;6.50;5.35;;;14.90;99.90;;;;;;5082873;28;20040;-79
2023/06/17 03:49:34;;;;;;;6.63;5.93;;;14.90;99.90;;;;;;5091159;28;20104;-79
2023/06/17 03:52:00;;;;;;;10.80;8.27;;;15.00;99.90;;;;;;5086651;28;20475;-79
2023/06/17 03:54:26;;;;;;;8.32;7.13;;;14.90;99.90;;;;;;5102793;27;20410;-79
2023/06/17 03:56:51;;;;;;;8.63;5.47;;;15.00;99.90;;;;;;5134690;27;20031;-79
2023/06/17 03:59:17;;;;;;;7.68;6.60;;;15.00;99.90;;;;;;5130396;27;20113;-79
2023/06/17 04:01:43;;;;;;;7.75;5.80;;;15.00;99.90;;;;;;5079775;27;20035;-79
2023/06/17 04:04:09;;;;;;;7.15;5.40;;;15.00;99.90;;;;;;5113325;27;20046;-79
2023/06/17 04:06:35;;;;;;;8.63;6.68;;;15.00;99.90;;;;;;5111467;27;20108;-79
2023/06/17 04:09:01;;;;;;;;;;;15.00;99.90;;;;;;5116629;27;20108;-79
2023/06/17 04:11:29;;;;;;;6.50;5.68;;;15.00;99.90;;;;;;5102324;27;19923;-79
2023/06/17 04:13:55;;;;;;;6.18;5.57;;;15.00;99.90;;;;;;5112093;27;20039;-79
2023/06/17 04:16:21;;;;;;;7.43;5.90;;;15.00;99.90;;;;;;5138773;27;20110;-79
2023/06/17 04:18:47;;;;;;;;;;;15.00;99.90;;;;;;5112145;27;20048;-79
2023/06/17 04:21:13;;;;;;;8.52;5.93;;;15.00;99.90;;;;;;5097447;28;19916;-79
2023/06/17 04:23:38;;;;;;;8.32;6.47;;;15.00;99.90;;;;;;5094593;27;20092;-79
2023/06/17 04:26:04;;;;;;;9.18;6.80;;;15.00;99.90;;;;;;5086524;27;20082;-79
2023/06/17 04:28:32;;;;;;;;;;;15.10;99.90;;;;;;5116524;27;20047;-79
2023/06/17 04:31:01;;;;;;;8.35;6.70;;;15.10;99.90;;;;;;5114515;27;20433;-79
2023/06/17 04:33:30;;;;;;;6.95;6.22;;;15.00;99.90;;;;;;5105899;27;20039;-77
2023/06/17 04:35:57;;;;;;;8.32;6.35;;;15.00;99.90;;;;;;5115218;27;20041;-79
2023/06/17 04:38:23;;;;;;;4.95;4.45;;;15.10;99.90;;;;;;5089092;27;20118;-80
2023/06/17 04:40:52;;;;;;;;;;;15.10;99.90;;;;;;5109923;27;20043;-78
2023/06/17 04:43:22;;;;;;;6.13;5.32;;;15.20;99.90;;;;;;5089415;27;19930;-80
2023/06/17 04:45:48;;;;;;;6.70;5.38;;;15.20;99.90;;;;;;5111043;27;20047;-79
2023/06/17 04:48:14;;;;;;;6.65;5.20;;;15.20;99.90;;;;;;5076774;28;20039;-79
2023/06/17 04:50:40;;;;;;;5.10;4.50;;;15.20;99.90;;;;;;5083787;27;20146;-78
2023/06/17 04:53:06;;;;;;;9.18;6.18;;;15.20;99.90;;;;;;5122432;27;20137;-79
2023/06/17 04:55:35;;;;;;;8.75;7.03;;;15.30;99.90;;;;;;5099280;27;20515;-79
2023/06/17 04:58:04;;;;;;;10.32;8.27;;;15.20;99.90;;;;;;5114736;27;20074;-79
2023/06/17 05:00:30;;;;;;;7.45;6.40;;;15.20;99.90;;;;;;5115204;27;20089;-79
2023/06/17 05:02:56;;;;;;;;;;;15.20;99.90;;;;;;5092933;27;20047;-79
2023/06/17 05:05:22;;;;;;;7.30;6.32;;;15.20;99.90;;;;;;5107482;28;20398;-79
2023/06/17 05:07:48;;;;;;;6.88;5.20;;;15.30;99.90;;;;;;5110777;27;20139;-78
2023/06/17 05:10:14;;;;;;;9.70;7.40;;;15.30;99.90;;;;;;5093577;27;20085;-78
2023/06/17 05:12:42;;;;;;;;;;;15.20;99.90;;;;;;5112962;27;20058;-78
2023/06/17 05:15:09;;;;;;;10.40;6.60;;;15.30;99.90;;;;;;5094910;27;20333;-78
2023/06/17 05:17:34;;;;;;;8.43;7.13;;;15.30;99.90;;;;;;5113347;27;20100;-78
2023/06/17 05:20:00;;;;;;;9.05;6.80;;;15.30;99.90;;;;;;5095760;27;20474;-78
2023/06/17 05:22:26;;;;;;;8.55;6.68;;;15.30;99.90;;;;;;5080882;27;20454;-78
2023/06/17 05:24:52;;;;;;;7.32;6.40;;;15.40;99.90;;;;;;5114038;27;20434;-78
2023/06/17 05:27:17;;;;;;;6.65;5.45;;;15.40;99.90;;;;;;5097335;27;20458;-78
2023/06/17 05:29:43;;;;;;;7.88;6.88;;;15.40;99.90;;;;;;5114174;27;20039;-79
2023/06/17 05:32:09;;;;;;;6.25;5.35;;;15.40;99.90;;;;;;5077247;27;20039;-80
2023/06/17 05:34:34;;;;;;;9.15;7.20;;;15.40;99.90;;;;;;5091673;27;20039;-76
2023/06/17 05:37:00;;;;;;;9.07;7.57;;;15.40;99.90;;;;;;5111562;27;20034;-78
2023/06/17 05:39:25;;;;;;;8.80;7.80;;;15.40;99.90;;;;;;5140140;27;20081;-78
2023/06/17 05:41:51;;;;;;;8.50;7.13;;;15.30;99.90;;;;;;5114860;27;20454;-78
2023/06/17 05:44:17;;;;;;;8.05;6.50;;;15.30;99.90;;;;;;5138742;27;20481;-78
2023/06/17 05:46:42;;;;;;;10.77;7.93;;;15.30;99.90;;;;;;5086026;27;20095;-79
2023/06/17 05:49:08;;;;;;;10.90;8.45;;;15.30;99.90;;;;;;5096458;27;20148;-78
2023/06/17 05:51:34;;;;;;;8.85;6.72;;;15.30;99.90;;;;;;5106031;28;20055;-78
2023/06/17 05:53:59;;;;;;;9.73;6.90;;;15.40;99.90;;;;;;5095571;28;20085;-78
2023/06/17 05:56:27;;;;;;;11.07;8.27;;;15.40;99.90;;;;;;5094010;28;20043;-78
2023/06/17 05:58:53;;;;;;;7.60;6.43;;;15.30;99.90;;;;;;5086552;28;20036;-78
2023/06/17 06:01:18;;;;;;;7.82;6.28;;;15.40;99.90;;;;;;5093642;28;20043;-78
2023/06/17 06:03:44;;;;;;;7.20;5.70;;;15.40;99.90;;;;;;5107488;28;20082;-78
2023/06/17 06:06:10;;;;;;;5.00;4.50;;;15.40;99.90;;;;;;5076675;28;20135;-78
2023/06/17 06:08:35;;;;;;;4.20;3.80;;;15.50;99.90;;;;;;5108466;28;20051;-78
2023/06/17 06:11:01;;;;;;;5.10;4.07;;;15.60;99.90;;;;;;5093477;28;20075;-78
2023/06/17 06:13:28;;;;;;;4.82;4.22;;;15.70;99.90;;;;;;5075964;28;20105;-78
2023/06/17 06:15:54;;;;;;;7.85;5.53;;;15.70;99.90;;;;;;5109137;28;20437;-78
2023/06/17 06:18:20;;;;;;;6.13;4.57;;;15.70;99.90;;;;;;5083736;28;20047;-78
2023/06/17 06:20:46;;;;;;;8.52;6.57;;;15.80;99.90;;;;;;5085756;28;20044;-79
2023/06/17 06:23:11;;;;;;;7.50;6.15;;;15.80;99.90;;;;;;5056756;28;20036;-79
2023/06/17 06:25:37;;;;;;;7.85;6.40;;;15.80;99.90;;;;;;5058075;28;20107;-79
2023/06/17 06:28:03;;;;;;;10.02;6.43;;;15.90;99.90;;;;;;5072677;28;20046;-79
2023/06/17 06:30:29;;;;;;;;;;;16.00;99.90;;;;;;5086981;28;20395;-78
2023/06/17 06:32:55;;;;;;;8.15;5.88;;;16.00;99.90;;;;;;5087637;28;19927;-78
2023/06/17 06:35:21;;;;;;;;;;;16.20;99.90;;;;;;5089892;28;20499;-78
2023/06/17 06:37:46;;;;;;;8.93;6.00;;;16.20;99.90;;;;;;5087248;28;19995;-79
2023/06/17 06:40:13;;;;;;;7.80;6.40;;;16.20;99.90;;;;;;5070859;28;20424;-78
2023/06/17 06:42:38;;;;;;;;;;;16.20;99.90;;;;;;5069603;28;20033;-79
2023/06/17 06:45:05;;;;;;;6.93;5.50;;;16.20;99.90;;;;;;5088800;28;20393;-79
2023/06/17 06:47:30;;;;;;;10.07;7.57;;;16.20;99.90;;;;;;5085603;28;20048;-79
2023/06/17 06:49:56;;;;;;;8.85;6.72;;;16.20;99.90;;;;;;5098540;28;20048;-79
2023/06/17 06:52:22;;;;;;;8.65;5.50;;;16.20;99.90;;;;;;5088962;28;20096;-77
2023/06/17 06:54:47;;;;;;;8.27;6.45;;;16.30;99.90;;;;;;5086202;28;20040;-78
2023/06/17 06:57:13;;;;;;;10.63;7.72;;;16.30;99.90;;;;;;5082344;28;20036;-79
2023/06/17 06:59:39;;;;;;;7.75;6.38;;;16.30;99.90;;;;;;5085796;28;20051;-79
2023/06/17 07:02:05;;;;;;;10.40;6.80;;;16.30;99.90;;;;;;5086068;28;20040;-80
2023/06/17 07:04:31;;;;;;;9.75;7.43;;;16.40;99.90;;;;;;5082929;28;20117;-79
2023/06/17 07:06:57;;;;;;;;;;;16.40;99.90;;;;;;5071302;28;20064;-78
2023/06/17 07:09:22;;;;;;;9.10;6.90;;;16.50;99.90;;;;;;5088291;28;19959;-78
2023/06/17 07:11:48;;;;;;;9.27;7.22;;;16.50;99.90;;;;;;5086170;28;20040;-78
2023/06/17 07:14:14;;;;;;;11.18;7.50;;;16.50;99.90;;;;;;5094563;27;20113;-79
2023/06/17 07:16:40;;;;;;;10.02;7.25;;;16.60;99.90;;;;;;5069372;28;20123;-78
2023/06/17 07:19:05;;;;;;;10.00;7.93;;;16.70;99.90;;;;;;5083159;28;20147;-77
2023/06/17 07:21:31;;;;;;;9.73;6.88;;;16.70;99.90;;;;;;5087231;28;20483;-78
2023/06/17 07:23:57;;;;;;;10.13;6.75;;;16.90;99.90;;;;;;5073883;28;20453;-79
2023/06/17 07:26:22;;;;;;;7.72;6.30;;;17.00;99.90;;;;;;5065674;28;20067;-78
2023/06/17 07:28:48;;;;;;;7.35;5.57;;;17.00;99.90;;;;;;5092007;28;20074;-78
2023/06/17 07:31:14;;;;;;;;;;;17.00;99.90;;;;;;5081099;28;20089;-78
2023/06/17 07:33:40;;;;;;;8.88;6.00;;;17.20;99.90;;;;;;5089387;28;20406;-78
2023/06/17 07:36:06;;;;;;;;;;;17.30;99.90;;;;;;5068843;28;20052;-78
2023/06/17 07:38:34;;;;;;;9.55;6.90;;;17.30;1.00;;;;;;5091832;28;20010;-80
2023/06/17 07:41:00;;;;;;;6.80;5.47;;;17.30;99.90;;;;;;5078351;28;20054;-79
2023/06/17 07:43:26;;;;;;;6.60;5.20;;;17.60;99.90;;;;;;5083900;28;20039;-79
2023/06/17 07:45:52;;;;;;;;;;;17.80;99.90;;;;;;5088474;28;20040;-77
2023/06/17 07:48:17;;;;;;;7.43;6.25;;;18.00;99.90;;;;;;5068315;28;19927;-78
2023/06/17 07:50:44;;;;;;;;;;;17.90;1.00;;;;;;5079582;28;20052;-79
2023/06/17 07:53:09;;;;;;;6.57;5.60;;;17.90;1.00;;;;;;5079987;28;20015;-79
2023/06/17 07:55:36;;;;;;;;;;;17.90;1.00;;;;;;5081058;28;20123;-79
2023/06/17 07:58:02;;;;;;;5.40;4.13;;;18.20;1.00;;;;;;5112507;28;20385;-77
2023/06/17 08:00:27;;;;;;;8.50;5.85;;;18.50;8.40;;;;;;5077573;28;20436;-77
2023/06/17 08:02:54;;;;;;;6.47;5.60;;;18.40;99.90;;;;;;5113090;28;20082;-77
2023/06/17 08:05:20;;;;;;;10.48;7.32;;;18.40;1.00;;;;;;5098887;28;20051;-76
2023/06/17 08:07:46;;;;;;;;;;;18.30;99.90;;;;;;5100744;28;20052;-79
2023/06/17 08:10:11;;;;;;;10.18;5.93;;;18.40;1.00;;;;;;5089826;28;19924;-76
2023/06/17 08:12:37;;;;;;;;;;;18.40;1.00;;;;;;5082573;28;20036;-77
2023/06/17 08:15:03;;;;;;;7.38;5.32;;;18.70;99.90;;;;;;5080168;28;19969;-76
2023/06/17 08:17:28;;;;;;;;;;;19.00;99.90;;;;;;5106130;28;20036;-75
2023/06/17 08:19:55;;;;;;;7.47;5.20;;;18.90;99.90;;;;;;5076947;28;19994;-75
2023/06/17 08:22:22;;;;;;;8.73;6.30;;;18.90;99.90;;;;;;5077813;28;20490;-75
2023/06/17 08:24:47;;;;;;;6.53;5.40;;;18.80;99.90;;;;;;5101516;28;20118;-75
2023/06/17 08:27:13;;;;;;;;;;;18.90;99.90;;;;;;5098770;28;20205;-75
2023/06/17 08:29:39;;;;;;;6.03;4.95;;;19.10;1.00;;;;;;5086254;28;19921;-74
2023/06/17 08:32:05;;;;;;;6.25;5.03;;;19.20;1.00;;;;;;5075988;28;20047;-74
2023/06/17 08:34:32;;;;;;;;;;;19.30;99.90;;;;;;5090910;28;20387;-74
2023/06/17 08:37:04;;;;;;;8.37;5.90;;;19.50;6.30;;;;;;5077994;28;20330;-75
2023/06/17 08:39:36;;;;;;;6.07;4.75;;;19.40;1.00;;;;;;5110869;28;20109;-75
2023/06/17 08:42:01;;;;;;;6.65;5.05;;;19.50;95.50;;;;;;5101501;28;20456;-75
2023/06/17 08:44:31;;;;;;;;;;;19.60;99.20;;;;;;5098137;28;20122;-75
2023/06/17 08:47:00;;;;;;;6.63;4.88;;;19.60;74.10;;;;;;5086592;28;19920;-75
2023/06/17 08:49:27;;;;;;;4.70;4.20;;;19.70;99.90;;;;;;5063072;28;20048;-75
2023/06/17 08:51:53;;;;;;;6.45;4.70;;;19.80;99.90;;;;;;5068028;28;20072;-75
2023/06/17 08:54:20;;;;;;;;;;;19.90;99.20;;;;;;5055109;28;20475;-75
2023/06/17 08:56:46;;;;;;;7.68;4.90;;;19.80;99.90;;;;;;5061637;28;19946;-75
2023/06/17 08:59:11;;;;;;;;;;;20.10;1.00;;;;;;5087392;28;20451;-75
2023/06/17 09:01:38;;;;;;;7.93;5.20;;;20.30;1.00;;;;;;5088570;28;20354;-74
2023/06/17 09:04:05;;;;;;;7.70;5.13;;;20.30;1.00;;;;;;5090147;28;20050;-75
2023/06/17 09:06:31;;;;;;;5.90;4.53;;;20.50;99.90;;;;;;5071393;28;20505;-75
2023/06/17 09:08:58;;;;;;;4.57;4.10;;;20.80;99.90;;;;;;5080798;28;20051;-75
2023/06/17 09:11:29;;;;;;;5.60;4.63;;;21.30;99.90;;;;;;5095129;28;20035;-75
2023/06/17 09:13:59;;;;;;;8.02;4.90;;;21.30;35.60;;;;;;5090421;28;20093;-75
2023/06/17 09:16:34;;;;;;;7.53;5.13;;;21.20;1.00;;;;;;5072088;28;20047;-75
2023/06/17 09:19:05;;;;;;;6.05;4.90;;;20.90;19.10;;;;;;5091297;28;20040;-73
2023/06/17 09:21:31;;;;;;;9.35;5.65;;;20.70;1.00;;;;;;5091403;28;20070;-75
2023/06/17 09:24:02;;;;;;;6.60;5.22;;;20.90;99.90;;;;;;5053662;28;20050;-74
2023/06/17 09:26:33;;;;;;;6.00;5.25;;;21.10;99.90;;;;;;5075372;28;20076;-74
2023/06/17 09:29:04;;;;;;;6.50;5.13;;;21.20;99.90;;;;;;5074914;28;20119;-74
2023/06/17 09:31:31;;;;;;;4.88;3.90;;;21.30;95.40;;;;;;5088222;28;20063;-74
2023/06/17 09:33:58;;;;;;;5.40;4.15;;;21.80;99.90;;;;;;5082177;28;20035;-74
2023/06/17 09:36:25;;;;;;;9.35;5.30;;;22.10;26.50;;;;;;5090010;28;20435;-74
2023/06/17 09:38:51;;;;;;;5.10;4.10;;;21.90;1.00;;;;;;5090574;28;20044;-74
2023/06/17 09:41:18;;;;;;;7.63;4.47;;;21.70;99.90;;;;;;5089988;28;20075;-74
2023/06/17 09:43:54;;;;;;;6.20;4.57;;;21.60;99.90;;;;;;5073162;28;20115;-74
2023/06/17 09:46:35;;;;;;;5.32;4.10;;;21.60;99.90;;;;;;5073560;28;20137;-74
2023/06/17 09:49:06;;;;;;;5.75;4.15;;;21.80;99.90;;;;;;5089779;28;20044;-74
2023/06/17 09:51:36;;;;;;;4.30;3.90;;;21.90;1.00;;;;;;5072684;28;20090;-74
2023/06/17 09:54:03;;;;;;;6.25;4.10;;;22.10;1.00;;;;;;5073816;28;20437;-75
2023/06/17 09:56:31;;;;;;;4.85;4.07;;;22.30;99.90;;;;;;5090006;28;20457;-76
2023/06/17 09:58:57;;;;;;;6.30;3.90;;;22.40;99.90;;;;;;5090121;28;20067;-76
2023/06/17 10:01:30;;;;;;;6.38;4.05;;;22.40;99.90;;;;;;5090575;28;20424;-75
2023/06/17 10:03:59;;;;;;;4.32;3.92;;;22.50;99.90;;;;;;5090224;28;20051;-76
2023/06/17 10:06:35;;;;;;;5.15;3.92;;;22.50;99.90;;;;;;5073603;28;20653;-75
2023/06/17 10:09:06;;;;;;;4.82;3.90;;;22.50;99.90;;;;;;5089995;28;20367;-75
2023/06/17 10:11:33;;;;;;;6.25;4.70;;;22.70;99.90;;;;;;5090390;28;20043;-77
2023/06/17 10:14:06;;;;;;;4.75;3.63;;;22.90;99.90;;;;;;5090200;28;20464;-76
2023/06/17 10:16:36;;;;;;;3.92;3.25;;;23.20;99.90;;;;;;5090111;28;20071;-75
2023/06/17 10:19:05;;;;;;;6.13;4.38;;;23.80;99.90;;;;;;5072995;28;20044;-76
2023/06/17 10:21:33;;;;;;;5.18;3.90;;;23.80;99.90;;;;;;5090566;28;20394;-76
2023/06/17 10:24:01;;;;;;;5.43;4.07;;;23.70;99.90;;;;;;5089521;28;20483;-67
2023/06/17 10:26:31;;;;;;;4.47;3.80;;;23.50;99.90;;;;;;5091245;28;20043;-67
2023/06/17 10:28:59;;;;;;;4.32;3.80;;;23.30;72.90;;;;;;5117500;27;20056;-67
2023/06/17 10:31:27;;;;;;;5.93;4.13;;;23.50;99.90;;;;;;5089926;28;20110;-67
2023/06/17 10:33:54;;;;;;;5.97;4.70;;;23.40;99.90;;;;;;5089849;28;20061;-75
2023/06/17 10:36:29;;;;;;;4.97;4.18;;;23.40;41.60;;;;;;5089758;28;20028;-78
2023/06/17 10:38:57;;;;;;;4.78;3.88;;;23.60;99.90;;;;;;5072704;28;20036;-77
2023/06/17 10:41:49;;;;;;;4.72;4.15;;;23.80;24.90;;;;;;5089373;28;20043;-77
2023/06/17 10:44:41;;;;;;;4.55;3.90;;;24.10;99.90;;;;;;5072644;28;20044;-77
2023/06/17 10:47:20;;;;;;;5.28;3.95;;;24.10;1.00;;;;;;5089260;28;20083;-76
2023/06/17 10:49:49;;;;;;;4.03;3.40;;;24.10;1.00;;;;;;5091720;27;20087;-77
2023/06/17 10:52:16;;;;;;;4.00;3.45;;;24.30;1.00;;;;;;5096075;27;20150;-77
2023/06/17 10:54:55;;;;;;;4.22;3.33;;;24.60;1.00;;;;;;5111694;27;20647;-77
2023/06/17 10:57:34;;;;;;;4.82;3.63;;;24.80;1.00;;;;;;5110967;27;20058;-77
2023/06/17 11:00:08;;;;;;;7.15;4.90;;;25.10;52.30;;;;;;5110618;27;21261;-76
2023/06/17 11:02:38;;;;;;;6.60;4.90;;;25.00;99.90;;;;;;5125040;27;20039;-76
2023/06/17 11:05:06;;;;;;;8.48;4.80;;;24.90;99.90;;;;;;5121540;27;20397;-76
2023/06/17 11:07:32;;;;;;;4.90;4.38;;;24.90;99.90;;;;;;5080582;27;20052;-76
2023/06/17 11:09:57;;;;;;;4.88;4.20;;;24.90;1.00;;;;;;5136146;27;20037;-76
2023/06/17 11:12:23;;;;;;;7.70;5.00;;;24.90;99.90;;;;;;5105261;27;20037;-76
2023/06/17 11:14:49;;;;;;;4.97;4.28;;;24.70;99.90;;;;;;5120540;27;20115;-76
2023/06/17 11:17:15;;;;;;;4.72;3.38;;;24.50;99.90;;;;;;5120646;27;20031;-76
2023/06/17 11:19:40;;;;;;;5.75;4.22;;;24.90;99.90;;;;;;5116855;27;20096;-76
2023/06/17 11:22:07;;;;;;;4.30;3.65;;;25.00;99.90;;;;;;5077118;28;20482;-76
2023/06/17 11:24:34;;;;;;;5.68;4.45;;;25.20;99.90;;;;;;5092310;27;20096;-77
2023/06/17 11:27:01;;;;;;;5.65;4.20;;;25.00;99.90;;;;;;5098002;28;20810;-76
2023/06/17 11:29:28;;;;;;;5.50;4.90;;;25.30;99.90;;;;;;5121547;27;20043;-76
2023/06/17 11:31:57;;;;;;;6.35;4.40;;;25.40;99.90;;;;;;5118473;28;20382;-76
2023/06/17 11:34:23;;;;;;;5.40;4.22;;;25.50;99.90;;;;;;5082903;28;20122;-77
2023/06/17 11:36:53;;;;;;;5.07;3.70;;;25.50;99.90;;;;;;5134145;27;20122;-76
2023/06/17 11:39:22;;;;;;;6.63;3.70;;;25.80;99.90;;;;;;5118536;28;20139;-76
2023/06/17 11:41:52;;;;;;;5.00;4.10;;;25.90;99.90;;;;;;5110300;28;20043;-76
2023/06/17 11:44:21;;;;;;;4.68;3.80;;;25.90;99.90;;;;;;5110497;28;20653;-76
2023/06/17 11:46:50;;;;;;;6.10;3.90;;;25.90;99.90;;;;;;5111994;28;20039;-76
2023/06/17 11:49:15;;;;;;;5.00;4.05;;;26.00;99.90;;;;;;5094796;28;20042;-76
2023/06/17 11:51:48;;;;;;;5.07;4.18;;;26.00;99.90;;;;;;5135529;27;20133;-80
2023/06/17 11:54:15;;;;;;;5.00;3.85;;;26.10;99.90;;;;;;5110075;28;20040;-80
2023/06/17 11:56:41;;;;;;;4.97;3.50;;;26.00;99.90;;;;;;5082282;28;20077;-80
2023/06/17 11:59:07;;;;;;;4.35;3.58;;;26.20;99.90;;;;;;5083287;28;20088;-81
2023/06/17 12:01:33;;;;;;;5.35;3.70;;;26.30;99.90;;;;;;5118813;27;20043;-80
2023/06/17 12:03:59;;;;;;;4.82;3.58;;;26.40;99.90;;;;;;5094393;28;20035;-80
2023/06/17 12:06:27;;;;;;;5.55;3.63;;;26.60;99.90;;;;;;5114478;27;20427;-80
2023/06/17 12:09:03;;;;;;;5.05;3.75;;;26.80;99.90;;;;;;5089908;28;20054;-81
2023/06/17 12:11:31;;;;;;;9.38;4.38;;;26.90;99.90;;;;;;5075308;28;20039;-79
2023/06/17 12:13:58;;;;;;;5.68;4.32;;;26.60;81.10;;;;;;5096085;28;20047;-80
2023/06/17 12:16:35;;;;;;;4.38;3.80;;;26.20;99.90;;;;;;5096934;27;20031;-80
2023/06/17 12:19:05;;;;;;;5.78;4.35;;;26.40;99.90;;;;;;5118797;27;20360;-80
2023/06/17 12:21:32;;;;;;;5.45;4.35;;;26.50;99.90;;;;;;5079094;28;20035;-80
2023/06/17 12:23:58;;;;;;;6.63;4.65;;;26.60;99.90;;;;;;5117613;27;20557;-80
2023/06/17 12:26:26;;;;;;;7.97;4.93;;;26.60;99.90;;;;;;5096614;28;20039;-80
2023/06/17 12:28:53;;;;;;;5.78;4.45;;;26.60;99.90;;;;;;5086994;27;20577;-80
2023/06/17 12:31:19;;;;;;;5.28;4.00;;;26.30;99.90;;;;;;5098771;28;20051;-77
2023/06/17 12:33:48;;;;;;;5.68;4.10;;;26.30;99.90;;;;;;5107058;27;20046;-76
2023/06/17 12:36:16;;;;;;;8.07;4.80;;;26.40;99.90;;;;;;5106348;27;20052;-77
2023/06/17 12:38:44;;;;;;;5.60;4.40;;;26.60;99.90;;;;;;5108866;28;20437;-77
2023/06/17 12:41:10;;;;;;;5.13;3.58;;;26.40;99.90;;;;;;5097892;28;20433;-76
2023/06/17 12:43:36;;;;;;;8.18;4.50;;;26.60;99.90;;;;;;5134773;27;20036;-76
2023/06/17 12:46:02;;;;;;;5.40;3.72;;;26.40;99.90;;;;;;5117880;27;20482;-77
2023/06/17 12:48:29;;;;;;;5.28;3.88;;;26.50;99.90;;;;;;5129341;27;20127;-77
2023/06/17 12:50:56;;;;;;;8.35;4.65;;;26.40;99.90;;;;;;5095314;28;20043;-77
2023/06/17 12:53:22;;;;;;;6.75;4.50;;;26.70;99.90;;;;;;5136618;27;20459;-76